Time,TemperatureF,DewpointF,PressureIn,WindDirection,WindDirectionDegrees,WindSpeedMPH,WindSpeedGustMPH,Humidity,HourlyPrecipIn,Conditions,Clouds,dailyrainin,SoftwareType,DateUTC
2013-11-06 00:01:00,18.5,17.0,25.85,WSW,250,5.0,5.0,94,0.00,,,0.00,weatherlink.com 1.10,2013-11-06 07:01:00,
2013-11-06 00:16:00,18.7,17.0,25.85,West,271,2.0,7.0,94,0.00,,,0.00,weatherlink.com 1.10,2013-11-06 07:16:00,
2013-11-06 00:31:00,19.4,18.0,25.84,WSW,237,4.0,6.0,94,0.00,,,0.00,weatherlink.com 1.10,2013-11-06 07:31:00,
2013-11-06 00:46:00,19.1,18.0,25.84,WSW,253,3.0,5.0,94,0.00,,,0.00,weatherlink.com 1.10,2013-11-06 07:46:00,
2013-11-06 01:01:00,18.7,17.0,25.84,West,259,5.0,6.0,93,0.00,,,0.00,weatherlink.com 1.10,2013-11-06 08:01:00,
2013-11-06 01:16:00,18.2,17.0,25.84,West,264,2.0,4.0,93,0.00,,,0.00,weatherlink.com 1.10,2013-11-06 08:16:00,
2013-11-06 01:31:00,17.5,16.0,25.84,West,276,3.0,5.0,93,0.00,,,0.00,weatherlink.com 1.10,2013-11-06 08:31:00,
2013-11-06 01:46:00,16.4,15.0,25.84,West,259,3.0,4.0,92,0.00,,,0.00,weatherlink.com 1.10,2013-11-06 08:46:00,
2013-11-06 02:01:00,15.4,14.0,25.84,WSW,258,2.0,4.0,92,0.00,,,0.00,weatherlink.com 1.10,2013-11-06 09:01:00,
2013-11-06 02:16:00,14.1,12.0,25.84,West,267,2.0,3.0,91,0.00,,,0.00,weatherlink.com 1.10,2013-11-06 09:16:00,
2013-11-06 02:31:00,13.7,12.0,25.84,WSW,250,2.0,3.0,92,0.00,,,0.00,weatherlink.com 1.10,2013-11-06 09:31:00,
2013-11-06 02:46:00,13.6,12.0,25.83,WSW,254,3.0,4.0,92,0.00,,,0.00,weatherlink.com 1.10,2013-11-06 09:46:00,
2013-11-06 03:01:00,13.1,11.0,25.83,West,265,4.0,4.0,92,0.00,,,0.00,weatherlink.com 1.10,2013-11-06 10:01:00,
2013-11-06 03:16:00,13.6,12.0,25.83,West,267,2.0,5.0,92,0.00,,,0.00,weatherlink.com 1.10,2013-11-06 10:16:00,
2013-11-06 03:31:00,13.3,11.0,25.84,West,262,4.0,5.0,92,0.00,,,0.00,weatherlink.com 1.10,2013-11-06 10:31:00,
2013-11-06 03:46:00,12.7,11.0,25.84,WNW,290,2.0,5.0,92,0.00,,,0.00,weatherlink.com 1.10,2013-11-06 10:46:00,
2013-11-06 04:01:00,12.1,10.0,25.84,WNW,283,4.0,6.0,92,0.00,,,0.00,weatherlink.com 1.10,2013-11-06 11:01:00,
2013-11-06 04:16:00,15.2,14.0,25.84,WNW,293,7.0,8.0,95,0.00,,,0.00,weatherlink.com 1.10,2013-11-06 11:16:00,
2013-11-06 04:31:00,18.5,17.0,25.84,WNW,284,5.0,9.0,95,0.00,,,0.00,weatherlink.com 1.10,2013-11-06 11:31:00,
2013-11-06 04:46:00,20.5,18.0,25.84,NW,304,5.0,12.0,91,0.00,,,0.00,weatherlink.com 1.10,2013-11-06 11:46:00,
2013-11-06 05:01:00,21.1,18.0,25.84,NW,304,4.0,8.0,88,0.00,,,0.00,weatherlink.com 1.10,2013-11-06 12:01:00,
2013-11-06 05:16:00,21.3,17.0,25.83,NW,316,4.0,11.0,83,0.00,,,0.00,weatherlink.com 1.10,2013-11-06 12:16:00,
2013-11-06 05:31:00,20.6,17.0,25.84,NW,304,4.0,6.0,84,0.00,,,0.00,weatherlink.com 1.10,2013-11-06 12:31:00,
2013-11-06 05:46:00,20.0,16.0,25.84,NNW,330,4.0,8.0,84,0.00,,,0.00,weatherlink.com 1.10,2013-11-06 12:46:00,
2013-11-06 06:01:00,20.9,16.0,25.84,WNW,290,5.0,9.0,82,0.00,,,0.00,weatherlink.com 1.10,2013-11-06 13:01:00,
2013-11-06 06:16:00,21.3,17.0,25.84,NW,311,6.0,9.0,82,0.00,,,0.00,weatherlink.com 1.10,2013-11-06 13:16:00,
2013-11-06 06:31:00,21.7,17.0,25.85,WNW,299,6.0,10.0,82,0.00,,,0.00,weatherlink.com 1.10,2013-11-06 13:31:00,
2013-11-06 06:46:00,22.6,18.0,25.85,WNW,302,4.0,10.0,83,0.00,,,0.00,weatherlink.com 1.10,2013-11-06 13:46:00,
2013-11-06 07:02:00,23.2,19.0,25.86,WNW,297,8.0,11.0,83,0.00,,,0.00,weatherlink.com 1.10,2013-11-06 14:02:00,
2013-11-06 07:17:00,25.1,19.0,25.86,WNW,302,9.0,12.0,79,0.00,,,0.00,weatherlink.com 1.10,2013-11-06 14:17:00,
2013-11-06 07:32:00,25.2,20.0,25.86,NW,304,11.0,14.0,79,0.00,,,0.00,weatherlink.com 1.10,2013-11-06 14:32:00,
2013-11-06 07:47:00,24.5,19.0,25.87,NW,319,8.0,11.0,79,0.00,,,0.00,weatherlink.com 1.10,2013-11-06 14:47:00,
2013-11-06 08:02:00,24.5,19.0,25.87,North,356,4.0,8.0,80,0.00,,,0.00,weatherlink.com 1.10,2013-11-06 15:02:00,
2013-11-06 08:17:00,24.8,20.0,25.87,NW,310,2.0,7.0,81,0.00,,,0.00,weatherlink.com 1.10,2013-11-06 15:17:00,
2013-11-06 08:32:00,26.2,21.0,25.88,WNW,302,6.0,7.0,80,0.00,,,0.00,weatherlink.com 1.10,2013-11-06 15:32:00,
2013-11-06 08:47:00,28.4,22.0,25.87,NW,307,6.0,11.0,78,0.00,,,0.00,weatherlink.com 1.10,2013-11-06 15:47:00,
2013-11-06 09:02:00,29.8,23.0,25.88,WNW,285,8.0,11.0,77,0.00,,,0.00,weatherlink.com 1.10,2013-11-06 16:02:00,
2013-11-06 09:17:00,31.4,24.0,25.88,NW,310,6.0,15.0,74,0.00,,,0.00,weatherlink.com 1.10,2013-11-06 16:17:00,
2013-11-06 09:32:00,32.8,25.0,25.88,NW,305,12.0,14.0,72,0.00,,,0.00,weatherlink.com 1.10,2013-11-06 16:32:00,
2013-11-06 09:47:00,33.9,25.0,25.89,WNW,293,12.0,16.0,71,0.00,,,0.00,weatherlink.com 1.10,2013-11-06 16:47:00,
2013-11-06 10:02:00,34.8,26.0,25.89,WNW,299,10.0,15.0,69,0.00,,,0.00,weatherlink.com 1.10,2013-11-06 17:02:00,
2013-11-06 10:17:00,36.1,26.0,25.90,WNW,302,8.0,14.0,67,0.00,,,0.00,weatherlink.com 1.10,2013-11-06 17:17:00,
2013-11-06 10:32:00,36.1,26.0,25.90,WNW,284,10.0,14.0,68,0.00,,,0.00,weatherlink.com 1.10,2013-11-06 17:32:00,
2013-11-06 10:47:00,36.4,26.0,25.90,NW,304,12.0,16.0,67,0.00,,,0.00,weatherlink.com 1.10,2013-11-06 17:47:00,
2013-11-06 11:02:00,37.2,27.0,25.89,WNW,300,10.0,19.0,66,0.00,,,0.00,weatherlink.com 1.10,2013-11-06 18:02:00,
2013-11-06 11:17:00,37.9,28.0,25.89,NW,304,8.0,14.0,67,0.00,,,0.00,weatherlink.com 1.10,2013-11-06 18:17:00,
2013-11-06 11:33:00,38.4,28.0,25.88,WNW,288,9.0,13.0,66,0.01,,,0.01,weatherlink.com 1.10,2013-11-06 18:33:00,
2013-11-06 11:48:00,38.8,28.0,25.88,WNW,300,11.0,15.0,65,0.01,,,0.01,weatherlink.com 1.10,2013-11-06 18:48:00,
2013-11-06 12:03:00,39.3,29.0,25.88,NW,305,11.0,16.0,66,0.01,,,0.01,weatherlink.com 1.10,2013-11-06 19:03:00,
2013-11-06 12:18:00,39.7,29.0,25.88,NW,304,11.0,20.0,65,0.02,,,0.02,weatherlink.com 1.10,2013-11-06 19:18:00,
2013-11-06 12:33:00,40.4,28.0,25.88,WNW,300,9.0,20.0,62,0.02,,,0.03,weatherlink.com 1.10,2013-11-06 19:33:00,
2013-11-06 12:48:00,40.8,29.0,25.89,WNW,294,11.0,18.0,63,0.03,,,0.04,weatherlink.com 1.10,2013-11-06 19:48:00,
2013-11-06 13:03:00,41.3,30.0,25.89,WNW,294,9.0,15.0,64,0.04,,,0.05,weatherlink.com 1.10,2013-11-06 20:03:00,
2013-11-06 13:18:00,41.9,30.0,25.89,NW,304,11.0,12.0,62,0.04,,,0.06,weatherlink.com 1.10,2013-11-06 20:18:00,
2013-11-06 13:33:00,41.5,29.0,25.89,NW,304,10.0,12.0,62,0.03,,,0.06,weatherlink.com 1.10,2013-11-06 20:33:00,
2013-11-06 13:48:00,42.8,29.0,25.89,WNW,299,9.0,14.0,59,0.03,,,0.07,weatherlink.com 1.10,2013-11-06 20:48:00,
2013-11-06 14:03:00,43.3,30.0,25.89,WNW,288,9.0,14.0,59,0.03,,,0.08,weatherlink.com 1.10,2013-11-06 21:03:00,
2013-11-06 14:18:00,43.9,30.0,25.90,NW,319,11.0,15.0,58,0.02,,,0.08,weatherlink.com 1.10,2013-11-06 21:18:00,
2013-11-06 14:33:00,44.9,29.0,25.90,WSW,253,8.0,12.0,55,0.03,,,0.09,weatherlink.com 1.10,2013-11-06 21:33:00,
2013-11-06 14:48:00,44.9,30.0,25.90,WNW,294,4.0,10.0,57,0.02,,,0.09,weatherlink.com 1.10,2013-11-06 21:48:00,
2013-11-06 15:03:00,44.9,31.0,25.90,NW,308,5.0,9.0,58,0.01,,,0.09,weatherlink.com 1.10,2013-11-06 22:03:00,
2013-11-06 15:18:00,44.7,30.0,25.90,NNW,345,2.0,10.0,57,0.02,,,0.10,weatherlink.com 1.10,2013-11-06 22:18:00,
2013-11-06 15:33:00,44.7,30.0,25.91,NNW,338,4.0,8.0,57,0.01,,,0.10,weatherlink.com 1.10,2013-11-06 22:33:00,
2013-11-06 15:48:00,43.2,30.0,25.91,NW,311,3.0,6.0,59,0.01,,,0.10,weatherlink.com 1.10,2013-11-06 22:48:00,
2013-11-06 16:03:00,42.9,30.0,25.91,NW,308,3.0,7.0,61,0.01,,,0.10,weatherlink.com 1.10,2013-11-06 23:03:00,
2013-11-06 16:18:00,41.0,30.0,25.91,NW,307,1.0,5.0,66,0.00,,,0.10,weatherlink.com 1.10,2013-11-06 23:18:00,
2013-11-06 16:33:00,39.6,30.0,25.91,NW,325,2.0,4.0,68,0.00,,,0.10,weatherlink.com 1.10,2013-11-06 23:33:00,
2013-11-06 16:48:00,39.0,30.0,25.92,NW,319,3.0,5.0,69,0.00,,,0.10,weatherlink.com 1.10,2013-11-06 23:48:00,
2013-11-06 17:03:00,39.1,29.0,25.93,WNW,290,4.0,7.0,68,0.00,,,0.10,weatherlink.com 1.10,2013-11-07 00:03:00,
2013-11-06 17:18:00,37.2,31.0,25.93,West,271,4.0,8.0,77,0.00,,,0.10,weatherlink.com 1.10,2013-11-07 00:18:00,
2013-11-06 17:33:00,37.1,30.0,25.95,WNW,282,4.0,9.0,76,0.00,,,0.10,weatherlink.com 1.10,2013-11-07 00:33:00,
2013-11-06 17:48:00,37.3,30.0,25.95,WNW,287,6.0,10.0,75,0.00,,,0.10,weatherlink.com 1.10,2013-11-07 00:48:00,
2013-11-06 18:03:00,36.5,30.0,25.96,WNW,293,7.0,9.0,77,0.00,,,0.10,weatherlink.com 1.10,2013-11-07 01:03:00,
2013-11-06 18:18:00,36.5,30.0,25.96,WNW,297,5.0,10.0,77,0.00,,,0.10,weatherlink.com 1.10,2013-11-07 01:18:00,
2013-11-06 18:33:00,36.1,30.0,25.98,NNE,12,3.0,9.0,78,0.00,,,0.10,weatherlink.com 1.10,2013-11-07 01:33:00,
2013-11-06 18:48:00,35.8,29.0,25.98,North,349,4.0,9.0,76,0.00,,,0.10,weatherlink.com 1.10,2013-11-07 01:48:00,
2013-11-06 19:04:00,34.3,28.0,25.98,NNE,20,4.0,6.0,79,0.00,,,0.10,weatherlink.com 1.10,2013-11-07 02:04:00,
2013-11-06 19:19:00,33.1,28.0,25.98,North,3,1.0,3.0,81,0.00,,,0.10,weatherlink.com 1.10,2013-11-07 02:19:00,
2013-11-06 19:49:00,33.1,29.0,25.99,NNW,343,4.0,6.0,83,0.00,,,0.10,weatherlink.com 1.10,2013-11-07 02:49:00,
2013-11-06 20:04:00,33.9,29.0,25.99,NNE,27,2.0,4.0,83,0.00,,,0.10,weatherlink.com 1.10,2013-11-07 03:04:00,
2013-11-06 20:19:00,33.6,29.0,26.00,NW,314,2.0,4.0,84,0.00,,,0.10,weatherlink.com 1.10,2013-11-07 03:19:00,
2013-11-06 20:34:00,33.6,30.0,26.00,North,349,2.0,5.0,85,0.00,,,0.10,weatherlink.com 1.10,2013-11-07 03:34:00,
2013-11-06 20:49:00,34.5,30.0,26.01,NNE,23,4.0,7.0,82,0.00,,,0.10,weatherlink.com 1.10,2013-11-07 03:49:00,
2013-11-06 21:04:00,34.5,29.0,26.01,NNW,338,3.0,8.0,81,0.00,,,0.10,weatherlink.com 1.10,2013-11-07 04:04:00,
2013-11-06 21:19:00,33.6,28.0,26.02,NNW,343,2.0,7.0,81,0.00,,,0.10,weatherlink.com 1.10,2013-11-07 04:19:00,
2013-11-06 21:34:00,33.7,28.0,26.02,NW,316,3.0,9.0,81,0.00,,,0.10,weatherlink.com 1.10,2013-11-07 04:34:00,
2013-11-06 21:49:00,33.4,28.0,26.03,WSW,252,2.0,8.0,80,0.00,,,0.10,weatherlink.com 1.10,2013-11-07 04:49:00,
2013-11-06 22:04:00,33.3,28.0,26.03,NNW,340,3.0,9.0,81,0.00,,,0.10,weatherlink.com 1.10,2013-11-07 05:04:00,
2013-11-06 22:19:00,33.8,28.0,26.03,NW,310,6.0,11.0,79,0.00,,,0.10,weatherlink.com 1.10,2013-11-07 05:19:00,
2013-11-06 22:34:00,34.0,28.0,26.04,NW,311,5.0,12.0,79,0.00,,,0.10,weatherlink.com 1.10,2013-11-07 05:34:00,
2013-11-06 22:49:00,34.3,28.0,26.04,NW,321,7.0,10.0,78,0.00,,,0.10,weatherlink.com 1.10,2013-11-07 05:49:00,
2013-11-06 23:04:00,33.0,27.0,26.05,NW,304,3.0,9.0,80,0.00,,,0.10,weatherlink.com 1.10,2013-11-07 06:04:00,
2013-11-06 23:19:00,32.0,27.0,26.05,WNW,291,5.0,8.0,81,0.00,,,0.10,weatherlink.com 1.10,2013-11-07 06:19:00,
2013-11-06 23:34:00,31.7,27.0,26.05,WNW,291,5.0,8.0,84,0.00,,,0.10,weatherlink.com 1.10,2013-11-07 06:34:00,
2013-11-06 23:49:00,32.7,28.0,26.05,NW,307,5.0,9.0,82,0.00,,,0.10,weatherlink.com 1.10,2013-11-07 06:49:00,